sensor_id;sensor_type;location;lat;lon;timestamp;pressure;altitude;pressure_sealevel;temperature;humidity
76337;BME280;65157;50.082;18.178;2023-05-23T00:00:57;98967.62;;;14.39;60.90
76337;BME280;65157;50.082;18.178;2023-05-23T00:03:25;98964.91;;;14.35;61.12
76337;BME280;65157;50.082;18.178;2023-05-23T00:05:51;98963.77;;;14.30;61.39
76337;BME280;65157;50.082;18.178;2023-05-23T00:08:18;98966.30;;;14.23;61.52
76337;BME280;65157;50.082;18.178;2023-05-23T00:10:45;98962.02;;;14.18;61.59
76337;BME280;65157;50.082;18.178;2023-05-23T00:13:11;98957.79;;;14.11;61.60
76337;BME280;65157;50.082;18.178;2023-05-23T00:15:38;98957.65;;;14.08;61.55
76337;BME280;65157;50.082;18.178;2023-05-23T00:18:05;98957.63;;;14.05;61.46
76337;BME280;65157;50.082;18.178;2023-05-23T00:20:31;98955.16;;;14.05;61.33
76337;BME280;65157;50.082;18.178;2023-05-23T00:22:58;98949.91;;;14.04;61.39
76337;BME280;65157;50.082;18.178;2023-05-23T00:25:25;98949.83;;;13.99;61.77
76337;BME280;65157;50.082;18.178;2023-05-23T00:27:52;98951.49;;;13.96;62.14
76337;BME280;65157;50.082;18.178;2023-05-23T00:30:19;98951.81;;;13.90;62.21
76337;BME280;65157;50.082;18.178;2023-05-23T00:32:45;98953.68;;;13.86;62.27
76337;BME280;65157;50.082;18.178;2023-05-23T00:35:12;98955.04;;;13.81;62.41
76337;BME280;65157;50.082;18.178;2023-05-23T00:37:39;98953.08;;;13.75;62.54
76337;BME280;65157;50.082;18.178;2023-05-23T00:40:06;98950.41;;;13.69;62.67
76337;BME280;65157;50.082;18.178;2023-05-23T00:42:33;98949.30;;;13.67;62.63
76337;BME280;65157;50.082;18.178;2023-05-23T00:44:59;98951.25;;;13.64;62.81
76337;BME280;65157;50.082;18.178;2023-05-23T00:47:26;98949.31;;;13.61;62.82
76337;BME280;65157;50.082;18.178;2023-05-23T00:49:53;98943.30;;;13.57;62.80
76337;BME280;65157;50.082;18.178;2023-05-23T00:52:19;98945.60;;;13.55;62.88
76337;BME280;65157;50.082;18.178;2023-05-23T00:54:46;98944.95;;;13.51;62.82
76337;BME280;65157;50.082;18.178;2023-05-23T00:57:13;98942.83;;;13.48;62.76
76337;BME280;65157;50.082;18.178;2023-05-23T00:59:39;98945.27;;;13.46;62.92
76337;BME280;65157;50.082;18.178;2023-05-23T01:02:07;98941.71;;;13.43;62.87
76337;BME280;65157;50.082;18.178;2023-05-23T01:04:34;98945.38;;;13.41;62.88
76337;BME280;65157;50.082;18.178;2023-05-23T01:07:01;98947.98;;;13.39;63.00
76337;BME280;65157;50.082;18.178;2023-05-23T01:09:28;98941.92;;;13.36;63.17
76337;BME280;65157;50.082;18.178;2023-05-23T01:12:28;98940.95;;;13.34;63.26
76337;BME280;65157;50.082;18.178;2023-05-23T01:15:12;98939.23;;;13.31;63.56
76337;BME280;65157;50.082;18.178;2023-05-23T01:20:34;98940.54;;;13.23;64.01
76337;BME280;65157;50.082;18.178;2023-05-23T01:23:21;98941.25;;;13.18;64.28
76337;BME280;65157;50.082;18.178;2023-05-23T01:28:36;98944.52;;;13.07;64.88
76337;BME280;65157;50.082;18.178;2023-05-23T01:31:03;98949.19;;;13.02;64.99
76337;BME280;65157;50.082;18.178;2023-05-23T01:33:32;98923.24;;;12.88;64.93
76337;BME280;65157;50.082;18.178;2023-05-23T01:36:01;98938.20;;;12.96;64.94
76337;BME280;65157;50.082;18.178;2023-05-23T01:38:28;98935.02;;;12.93;65.18
76337;BME280;65157;50.082;18.178;2023-05-23T01:40:54;98935.73;;;12.89;65.13
76337;BME280;65157;50.082;18.178;2023-05-23T01:43:22;98934.92;;;12.85;65.04
76337;BME280;65157;50.082;18.178;2023-05-23T01:45:51;98938.33;;;12.84;65.14
76337;BME280;65157;50.082;18.178;2023-05-23T01:48:20;98933.94;;;12.80;65.32
76337;BME280;65157;50.082;18.178;2023-05-23T01:50:47;98933.25;;;12.74;65.45
76337;BME280;65157;50.082;18.178;2023-05-23T01:53:19;98935.55;;;12.71;65.66
76337;BME280;65157;50.082;18.178;2023-05-23T01:55:46;98933.57;;;12.65;65.82
76337;BME280;65157;50.082;18.178;2023-05-23T01:58:14;98930.71;;;12.66;65.72
76337;BME280;65157;50.082;18.178;2023-05-23T02:00:40;98931.95;;;12.63;66.19
76337;BME280;65157;50.082;18.178;2023-05-23T02:03:07;98926.03;;;12.54;66.31
76337;BME280;65157;50.082;18.178;2023-05-23T02:05:34;98936.29;;;12.55;66.57
76337;BME280;65157;50.082;18.178;2023-05-23T02:08:01;98939.87;;;12.51;66.71
76337;BME280;65157;50.082;18.178;2023-05-23T02:10:28;98935.02;;;12.48;66.96
76337;BME280;65157;50.082;18.178;2023-05-23T02:12:54;98933.95;;;12.46;67.06
76337;BME280;65157;50.082;18.178;2023-05-23T02:15:21;98929.77;;;12.41;67.21
76337;BME280;65157;50.082;18.178;2023-05-23T02:17:48;98927.14;;;12.37;67.32
76337;BME280;65157;50.082;18.178;2023-05-23T02:20:15;98927.34;;;12.34;67.47
76337;BME280;65157;50.082;18.178;2023-05-23T02:22:41;98929.68;;;12.30;67.59
76337;BME280;65157;50.082;18.178;2023-05-23T02:25:08;98926.91;;;12.26;67.76
76337;BME280;65157;50.082;18.178;2023-05-23T02:27:34;98922.91;;;12.21;67.91
76337;BME280;65157;50.082;18.178;2023-05-23T02:30:01;98925.52;;;12.18;68.02
76337;BME280;65157;50.082;18.178;2023-05-23T02:32:30;98923.41;;;12.15;68.24
76337;BME280;65157;50.082;18.178;2023-05-23T02:34:56;98927.84;;;12.12;68.31
76337;BME280;65157;50.082;18.178;2023-05-23T02:37:23;98929.60;;;12.09;68.26
76337;BME280;65157;50.082;18.178;2023-05-23T02:39:50;98918.73;;;12.04;68.44
76337;BME280;65157;50.082;18.178;2023-05-23T02:42:16;98915.27;;;12.02;68.79
76337;BME280;65157;50.082;18.178;2023-05-23T02:44:43;98919.88;;;12.02;68.89
76337;BME280;65157;50.082;18.178;2023-05-23T02:47:11;98921.77;;;11.99;68.91
76337;BME280;65157;50.082;18.178;2023-05-23T02:49:37;98920.80;;;11.98;69.08
76337;BME280;65157;50.082;18.178;2023-05-23T02:52:05;98918.77;;;11.96;69.15
76337;BME280;65157;50.082;18.178;2023-05-23T02:54:31;98917.31;;;11.94;69.10
76337;BME280;65157;50.082;18.178;2023-05-23T02:56:58;98918.01;;;11.90;69.20
76337;BME280;65157;50.082;18.178;2023-05-23T02:59:24;98911.98;;;11.87;69.23
76337;BME280;65157;50.082;18.178;2023-05-23T03:01:51;98911.02;;;11.86;69.16
76337;BME280;65157;50.082;18.178;2023-05-23T03:04:18;98912.04;;;11.83;69.31
76337;BME280;65157;50.082;18.178;2023-05-23T03:06:44;98911.01;;;11.82;69.16
76337;BME280;65157;50.082;18.178;2023-05-23T03:09:11;98916.19;;;11.81;69.16
76337;BME280;65157;50.082;18.178;2023-05-23T03:11:37;98912.95;;;11.79;69.22
76337;BME280;65157;50.082;18.178;2023-05-23T03:14:05;98911.98;;;11.78;69.24
76337;BME280;65157;50.082;18.178;2023-05-23T03:16:32;98906.89;;;11.77;69.14
76337;BME280;65157;50.082;18.178;2023-05-23T03:18:59;98907.24;;;11.77;69.42
76337;BME280;65157;50.082;18.178;2023-05-23T03:21:25;98896.98;;;11.70;69.65
76337;BME280;65157;50.082;18.178;2023-05-23T03:23:52;98903.17;;;11.73;69.74
76337;BME280;65157;50.082;18.178;2023-05-23T03:26:18;98902.64;;;11.74;69.79
76337;BME280;65157;50.082;18.178;2023-05-23T03:28:45;98901.42;;;11.73;69.81
76337;BME280;65157;50.082;18.178;2023-05-23T03:31:12;98902.45;;;11.74;69.97
76337;BME280;65157;50.082;18.178;2023-05-23T03:33:38;98902.23;;;11.75;70.14
76337;BME280;65157;50.082;18.178;2023-05-23T03:36:05;98896.09;;;11.70;70.02
76337;BME280;65157;50.082;18.178;2023-05-23T03:38:32;98903.52;;;11.77;69.62
76337;BME280;65157;50.082;18.178;2023-05-23T03:40:58;98905.65;;;11.80;70.05
76337;BME280;65157;50.082;18.178;2023-05-23T03:43:25;98901.52;;;11.81;70.26
76337;BME280;65157;50.082;18.178;2023-05-23T03:45:52;98901.12;;;11.82;70.43
76337;BME280;65157;50.082;18.178;2023-05-23T03:48:18;98898.00;;;11.84;70.19
76337;BME280;65157;50.082;18.178;2023-05-23T03:50:46;98894.51;;;11.87;70.50
76337;BME280;65157;50.082;18.178;2023-05-23T03:53:13;98891.45;;;11.87;70.87
76337;BME280;65157;50.082;18.178;2023-05-23T03:55:41;98887.18;;;11.88;70.81
76337;BME280;65157;50.082;18.178;2023-05-23T03:58:07;98882.38;;;11.88;70.81
76337;BME280;65157;50.082;18.178;2023-05-23T04:00:35;98877.16;;;11.90;71.21
76337;BME280;65157;50.082;18.178;2023-05-23T04:03:04;98875.98;;;11.92;71.44
76337;BME280;65157;50.082;18.178;2023-05-23T04:05:30;98874.21;;;11.93;71.70
76337;BME280;65157;50.082;18.178;2023-05-23T04:07:57;98875.65;;;11.92;72.14
76337;BME280;65157;50.082;18.178;2023-05-23T04:10:24;98881.85;;;11.92;72.28
76337;BME280;65157;50.082;18.178;2023-05-23T04:12:51;98877.44;;;11.92;72.65
76337;BME280;65157;50.082;18.178;2023-05-23T04:15:17;98883.44;;;11.89;72.72
76337;BME280;65157;50.082;18.178;2023-05-23T04:17:44;98881.50;;;11.88;72.74
76337;BME280;65157;50.082;18.178;2023-05-23T04:20:12;98869.73;;;11.87;72.88
76337;BME280;65157;50.082;18.178;2023-05-23T04:22:39;98882.54;;;11.96;72.90
76337;BME280;65157;50.082;18.178;2023-05-23T04:25:06;98874.20;;;11.93;72.65
76337;BME280;65157;50.082;18.178;2023-05-23T04:27:33;98884.45;;;12.03;72.74
76337;BME280;65157;50.082;18.178;2023-05-23T04:29:59;98877.20;;;12.06;72.74
76337;BME280;65157;50.082;18.178;2023-05-23T04:32:26;98874.78;;;12.12;72.87
76337;BME280;65157;50.082;18.178;2023-05-23T04:34:53;98873.63;;;12.16;72.68
76337;BME280;65157;50.082;18.178;2023-05-23T04:37:19;98872.74;;;12.23;72.46
76337;BME280;65157;50.082;18.178;2023-05-23T04:39:47;98869.27;;;12.31;72.19
76337;BME280;65157;50.082;18.178;2023-05-23T04:42:13;98870.58;;;12.39;72.31
76337;BME280;65157;50.082;18.178;2023-05-23T04:44:40;98865.08;;;12.46;72.08
76337;BME280;65157;50.082;18.178;2023-05-23T04:47:07;98865.57;;;12.50;72.01
76337;BME280;65157;50.082;18.178;2023-05-23T04:49:35;98865.27;;;12.52;72.16
76337;BME280;65157;50.082;18.178;2023-05-23T04:52:02;98862.38;;;12.56;71.84
76337;BME280;65157;50.082;18.178;2023-05-23T04:54:29;98859.67;;;12.66;71.98
76337;BME280;65157;50.082;18.178;2023-05-23T04:56:56;98838.58;;;12.61;71.69
76337;BME280;65157;50.082;18.178;2023-05-23T04:59:22;98857.41;;;12.84;71.85
76337;BME280;65157;50.082;18.178;2023-05-23T05:01:49;98856.48;;;12.94;71.49
76337;BME280;65157;50.082;18.178;2023-05-23T05:04:16;98856.52;;;13.05;71.49
76337;BME280;65157;50.082;18.178;2023-05-23T05:06:43;98855.95;;;13.18;71.24
76337;BME280;65157;50.082;18.178;2023-05-23T05:09:09;98852.98;;;13.30;70.98
76337;BME280;65157;50.082;18.178;2023-05-23T05:11:36;98839.65;;;13.36;71.05
76337;BME280;65157;50.082;18.178;2023-05-23T05:14:03;98850.02;;;13.55;70.72
76337;BME280;65157;50.082;18.178;2023-05-23T05:16:32;98848.02;;;13.73;70.51
76337;BME280;65157;50.082;18.178;2023-05-23T05:18:59;98844.77;;;13.91;70.19
76337;BME280;65157;50.082;18.178;2023-05-23T05:21:26;98840.84;;;14.08;69.32
76337;BME280;65157;50.082;18.178;2023-05-23T05:23:53;98840.56;;;14.27;68.81
76337;BME280;65157;50.082;18.178;2023-05-23T05:26:19;98835.29;;;14.38;69.11
76337;BME280;65157;50.082;18.178;2023-05-23T05:28:47;98845.95;;;14.56;68.84
76337;BME280;65157;50.082;18.178;2023-05-23T05:31:14;98848.80;;;14.70;68.68
76337;BME280;65157;50.082;18.178;2023-05-23T05:33:40;98845.48;;;14.80;68.29
76337;BME280;65157;50.082;18.178;2023-05-23T05:36:07;98844.64;;;14.93;67.72
76337;BME280;65157;50.082;18.178;2023-05-23T05:38:34;98844.52;;;15.07;67.55
76337;BME280;65157;50.082;18.178;2023-05-23T05:41:00;98839.41;;;15.23;67.41
76337;BME280;65157;50.082;18.178;2023-05-23T05:43:27;98838.33;;;15.38;66.62
76337;BME280;65157;50.082;18.178;2023-05-23T05:45:53;98835.16;;;15.54;66.19
76337;BME280;65157;50.082;18.178;2023-05-23T05:48:20;98834.98;;;15.69;65.33
76337;BME280;65157;50.082;18.178;2023-05-23T05:50:47;98837.11;;;15.79;65.19
76337;BME280;65157;50.082;18.178;2023-05-23T05:53:14;98829.11;;;15.86;65.04
76337;BME280;65157;50.082;18.178;2023-05-23T05:55:40;98829.42;;;16.02;64.92
76337;BME280;65157;50.082;18.178;2023-05-23T05:58:07;98818.34;;;16.05;64.73
76337;BME280;65157;50.082;18.178;2023-05-23T06:00:34;98833.00;;;16.26;64.88
76337;BME280;65157;50.082;18.178;2023-05-23T06:03:01;98825.06;;;16.38;64.98
76337;BME280;65157;50.082;18.178;2023-05-23T06:05:28;98834.14;;;16.56;64.61
76337;BME280;65157;50.082;18.178;2023-05-23T06:07:55;98821.23;;;16.61;63.96
76337;BME280;65157;50.082;18.178;2023-05-23T06:10:21;98829.77;;;16.80;63.05
76337;BME280;65157;50.082;18.178;2023-05-23T06:12:48;98831.08;;;16.91;63.06
76337;BME280;65157;50.082;18.178;2023-05-23T06:15:15;98827.65;;;17.04;62.37
76337;BME280;65157;50.082;18.178;2023-05-23T06:17:42;98823.94;;;17.15;62.20
76337;BME280;65157;50.082;18.178;2023-05-23T06:20:08;98818.48;;;17.33;62.08
76337;BME280;65157;50.082;18.178;2023-05-23T06:22:36;98815.08;;;17.49;61.26
76337;BME280;65157;50.082;18.178;2023-05-23T06:25:02;98815.25;;;17.66;61.07
76337;BME280;65157;50.082;18.178;2023-05-23T06:27:29;98815.70;;;17.85;60.74
76337;BME280;65157;50.082;18.178;2023-05-23T06:29:56;98811.98;;;18.00;60.73
76337;BME280;65157;50.082;18.178;2023-05-23T06:32:22;98807.88;;;18.16;60.38
76337;BME280;65157;50.082;18.178;2023-05-23T06:34:49;98801.36;;;18.25;60.09
76337;BME280;65157;50.082;18.178;2023-05-23T06:37:15;98807.46;;;18.42;59.44
76337;BME280;65157;50.082;18.178;2023-05-23T06:39:42;98806.65;;;18.55;58.57
76337;BME280;65157;50.082;18.178;2023-05-23T06:42:10;98803.11;;;18.68;58.69
76337;BME280;65157;50.082;18.178;2023-05-23T06:44:37;98799.10;;;18.79;58.76
76337;BME280;65157;50.082;18.178;2023-05-23T06:47:05;98797.71;;;18.91;58.53
76337;BME280;65157;50.082;18.178;2023-05-23T06:49:31;98790.95;;;19.10;58.83
76337;BME280;65157;50.082;18.178;2023-05-23T06:51:58;98789.02;;;19.27;58.56
76337;BME280;65157;50.082;18.178;2023-05-23T06:54:24;98778.70;;;19.45;57.89
76337;BME280;65157;50.082;18.178;2023-05-23T06:56:52;98773.74;;;19.60;57.35
76337;BME280;65157;50.082;18.178;2023-05-23T06:59:19;98768.70;;;19.77;57.61
76337;BME280;65157;50.082;18.178;2023-05-23T07:01:45;98749.59;;;19.81;57.47
76337;BME280;65157;50.082;18.178;2023-05-23T07:04:12;98762.15;;;20.07;56.56
76337;BME280;65157;50.082;18.178;2023-05-23T07:06:40;98759.57;;;20.11;55.71
76337;BME280;65157;50.082;18.178;2023-05-23T07:09:07;98760.34;;;20.23;55.42
76337;BME280;65157;50.082;18.178;2023-05-23T07:11:33;98759.17;;;20.28;54.86
76337;BME280;65157;50.082;18.178;2023-05-23T07:14:00;98760.81;;;20.38;55.69
76337;BME280;65157;50.082;18.178;2023-05-23T07:16:27;98761.70;;;20.50;55.08
76337;BME280;65157;50.082;18.178;2023-05-23T07:18:54;98763.13;;;20.59;55.28
76337;BME280;65157;50.082;18.178;2023-05-23T07:21:20;98759.91;;;20.75;55.09
76337;BME280;65157;50.082;18.178;2023-05-23T07:23:47;98757.41;;;20.88;54.70
76337;BME280;65157;50.082;18.178;2023-05-23T07:26:14;98757.54;;;21.03;54.43
76337;BME280;65157;50.082;18.178;2023-05-23T07:28:40;98754.48;;;21.16;54.11
76337;BME280;65157;50.082;18.178;2023-05-23T07:31:07;98756.81;;;21.18;53.82
76337;BME280;65157;50.082;18.178;2023-05-23T07:33:34;98749.86;;;21.21;53.35
76337;BME280;65157;50.082;18.178;2023-05-23T07:36:01;98748.15;;;21.34;53.29
76337;BME280;65157;50.082;18.178;2023-05-23T07:38:28;98742.99;;;21.50;52.98
76337;BME280;65157;50.082;18.178;2023-05-23T07:40:56;98732.38;;;21.61;52.78
76337;BME280;65157;50.082;18.178;2023-05-23T07:43:23;98731.55;;;21.78;52.61
76337;BME280;65157;50.082;18.178;2023-05-23T07:45:50;98728.30;;;21.90;52.43
76337;BME280;65157;50.082;18.178;2023-05-23T07:48:16;98728.89;;;22.03;51.89
76337;BME280;65157;50.082;18.178;2023-05-23T07:50:43;98724.13;;;22.13;50.82
76337;BME280;65157;50.082;18.178;2023-05-23T07:53:10;98726.02;;;22.19;50.82
76337;BME280;65157;50.082;18.178;2023-05-23T07:55:36;98728.91;;;22.34;50.71
76337;BME280;65157;50.082;18.178;2023-05-23T07:58:03;98731.70;;;22.43;50.65
76337;BME280;65157;50.082;18.178;2023-05-23T08:00:30;98725.57;;;22.49;50.21
76337;BME280;65157;50.082;18.178;2023-05-23T08:02:57;98732.27;;;22.58;49.80
76337;BME280;65157;50.082;18.178;2023-05-23T08:05:23;98731.98;;;22.66;49.98
76337;BME280;65157;50.082;18.178;2023-05-23T08:07:51;98730.95;;;22.83;50.00
76337;BME280;65157;50.082;18.178;2023-05-23T08:10:18;98729.94;;;23.02;50.09
76337;BME280;65157;50.082;18.178;2023-05-23T08:12:45;98718.69;;;23.17;49.70
76337;BME280;65157;50.082;18.178;2023-05-23T08:15:11;98721.25;;;23.32;48.69
76337;BME280;65157;50.082;18.178;2023-05-23T08:17:38;98713.81;;;23.38;47.97
76337;BME280;65157;50.082;18.178;2023-05-23T08:20:05;98711.73;;;23.48;48.73
76337;BME280;65157;50.082;18.178;2023-05-23T08:22:32;98708.27;;;23.66;48.65
76337;BME280;65157;50.082;18.178;2023-05-23T08:24:59;98701.30;;;23.77;48.63
76337;BME280;65157;50.082;18.178;2023-05-23T08:27:25;98705.90;;;23.93;48.02
76337;BME280;65157;50.082;18.178;2023-05-23T08:29:52;98706.40;;;24.03;46.65
76337;BME280;65157;50.082;18.178;2023-05-23T08:32:19;98710.10;;;24.13;45.95
76337;BME280;65157;50.082;18.178;2023-05-23T08:34:45;98704.86;;;24.16;45.66
76337;BME280;65157;50.082;18.178;2023-05-23T08:37:12;98709.94;;;24.25;43.36
76337;BME280;65157;50.082;18.178;2023-05-23T08:39:39;98706.88;;;24.19;43.63
76337;BME280;65157;50.082;18.178;2023-05-23T08:42:06;98701.77;;;24.18;43.36
76337;BME280;65157;50.082;18.178;2023-05-23T08:44:34;98703.63;;;24.16;43.55
76337;BME280;65157;50.082;18.178;2023-05-23T08:47:02;98701.97;;;24.18;44.39
76337;BME280;65157;50.082;18.178;2023-05-23T08:49:29;98704.13;;;24.25;44.81
76337;BME280;65157;50.082;18.178;2023-05-23T08:52:01;98699.52;;;24.31;44.12
76337;BME280;65157;50.082;18.178;2023-05-23T08:54:29;98698.68;;;24.35;42.57
76337;BME280;65157;50.082;18.178;2023-05-23T08:56:56;98697.86;;;24.43;43.05
76337;BME280;65157;50.082;18.178;2023-05-23T08:59:24;98699.92;;;24.50;43.33
76337;BME280;65157;50.082;18.178;2023-05-23T09:01:53;98701.70;;;24.62;43.69
76337;BME280;65157;50.082;18.178;2023-05-23T09:04:20;98701.48;;;24.74;44.02
76337;BME280;65157;50.082;18.178;2023-05-23T09:06:47;98695.39;;;24.87;41.91
76337;BME280;65157;50.082;18.178;2023-05-23T09:09:14;98690.41;;;24.89;42.06
76337;BME280;65157;50.082;18.178;2023-05-23T09:11:41;98695.64;;;24.98;42.44
76337;BME280;65157;50.082;18.178;2023-05-23T09:14:08;98696.17;;;25.10;41.80
76337;BME280;65157;50.082;18.178;2023-05-23T09:16:34;98693.44;;;25.22;41.06
76337;BME280;65157;50.082;18.178;2023-05-23T09:19:12;98691.14;;;25.32;40.22
76337;BME280;65157;50.082;18.178;2023-05-23T09:21:43;98686.00;;;25.43;40.23
76337;BME280;65157;50.082;18.178;2023-05-23T09:24:11;98681.02;;;25.60;38.55
76337;BME280;65157;50.082;18.178;2023-05-23T09:26:38;98680.20;;;25.67;39.11
76337;BME280;65157;50.082;18.178;2023-05-23T09:29:05;98680.05;;;25.81;37.82
76337;BME280;65157;50.082;18.178;2023-05-23T09:31:32;98679.42;;;25.85;36.22
76337;BME280;65157;50.082;18.178;2023-05-23T09:33:59;98670.27;;;25.85;37.23
76337;BME280;65157;50.082;18.178;2023-05-23T09:36:27;98664.80;;;25.86;37.28
76337;BME280;65157;50.082;18.178;2023-05-23T09:38:54;98676.45;;;26.06;37.96
76337;BME280;65157;50.082;18.178;2023-05-23T09:41:22;98668.06;;;26.16;37.91
76337;BME280;65157;50.082;18.178;2023-05-23T09:43:50;98666.77;;;26.26;37.20
76337;BME280;65157;50.082;18.178;2023-05-23T09:46:17;98666.27;;;26.36;38.08
76337;BME280;65157;50.082;18.178;2023-05-23T09:48:48;98661.95;;;26.50;37.61
76337;BME280;65157;50.082;18.178;2023-05-23T09:51:18;98656.00;;;26.62;37.86
76337;BME280;65157;50.082;18.178;2023-05-23T09:53:49;98646.05;;;26.77;37.48
76337;BME280;65157;50.082;18.178;2023-05-23T09:56:16;98647.92;;;26.92;37.89
76337;BME280;65157;50.082;18.178;2023-05-23T09:58:47;98643.87;;;27.01;38.24
76337;BME280;65157;50.082;18.178;2023-05-23T10:01:15;98643.08;;;27.20;38.25
76337;BME280;65157;50.082;18.178;2023-05-23T10:03:50;98643.02;;;27.42;37.88
76337;BME280;65157;50.082;18.178;2023-05-23T10:09:00;98641.94;;;27.56;38.31
76337;BME280;65157;50.082;18.178;2023-05-23T10:14:08;98644.95;;;27.54;38.71
76337;BME280;65157;50.082;18.178;2023-05-23T10:16:54;98642.59;;;27.60;39.29
76337;BME280;65157;50.082;18.178;2023-05-23T10:19:27;98643.55;;;27.81;39.53
76337;BME280;65157;50.082;18.178;2023-05-23T10:22:03;98641.33;;;27.89;38.68
76337;BME280;65157;50.082;18.178;2023-05-23T10:24:32;98639.92;;;27.88;38.38
76337;BME280;65157;50.082;18.178;2023-05-23T10:27:00;98645.27;;;27.93;37.78
76337;BME280;65157;50.082;18.178;2023-05-23T10:29:31;98639.84;;;28.05;38.82
76337;BME280;65157;50.082;18.178;2023-05-23T10:31:58;98637.27;;;28.11;38.19
76337;BME280;65157;50.082;18.178;2023-05-23T10:34:36;98635.99;;;28.12;38.00
76337;BME280;65157;50.082;18.178;2023-05-23T10:37:06;98642.74;;;27.92;38.14
76337;BME280;65157;50.082;18.178;2023-05-23T10:42:18;98646.44;;;27.52;38.91
76337;BME280;65157;50.082;18.178;2023-05-23T10:44:47;98649.76;;;27.36;39.69
76337;BME280;65157;50.082;18.178;2023-05-23T10:47:24;98653.38;;;27.27;39.94
76337;BME280;65157;50.082;18.178;2023-05-23T10:49:51;98657.68;;;27.19;39.61
76337;BME280;65157;50.082;18.178;2023-05-23T10:52:18;98664.02;;;27.09;40.43
76337;BME280;65157;50.082;18.178;2023-05-23T10:54:52;98720.36;;;26.90;40.58
76337;BME280;65157;50.082;18.178;2023-05-23T10:57:21;98689.83;;;26.08;43.63
76337;BME280;65157;50.082;18.178;2023-05-23T10:59:49;98721.06;;;24.64;48.07
76337;BME280;65157;50.082;18.178;2023-05-23T11:02:27;98750.13;;;23.44;52.45
76337;BME280;65157;50.082;18.178;2023-05-23T11:07:45;98742.02;;;21.47;58.43
76337;BME280;65157;50.082;18.178;2023-05-23T11:10:12;98736.48;;;20.72;60.42
76337;BME280;65157;50.082;18.178;2023-05-23T11:12:41;98752.84;;;20.35;61.46
76337;BME280;65157;50.082;18.178;2023-05-23T11:15:21;98753.88;;;20.05;62.69
76337;BME280;65157;50.082;18.178;2023-05-23T11:17:56;98755.23;;;19.74;63.61
76337;BME280;65157;50.082;18.178;2023-05-23T11:20:23;98746.67;;;19.53;63.25
76337;BME280;65157;50.082;18.178;2023-05-23T11:22:58;98739.10;;;19.39;63.19
76337;BME280;65157;50.082;18.178;2023-05-23T11:28:11;98743.80;;;18.95;64.35
76337;BME280;65157;50.082;18.178;2023-05-23T11:30:39;98740.61;;;18.75;64.34
76337;BME280;65157;50.082;18.178;2023-05-23T11:33:10;98723.16;;;18.74;64.42
76337;BME280;65157;50.082;18.178;2023-05-23T11:35:37;98717.74;;;18.81;64.56
76337;BME280;65157;50.082;18.178;2023-05-23T11:38:04;98709.46;;;18.93;64.93
76337;BME280;65157;50.082;18.178;2023-05-23T11:40:36;98710.16;;;18.97;65.53
76337;BME280;65157;50.082;18.178;2023-05-23T11:43:07;98714.59;;;18.99;65.39
76337;BME280;65157;50.082;18.178;2023-05-23T11:45:36;98711.54;;;19.05;65.37
76337;BME280;65157;50.082;18.178;2023-05-23T11:48:15;98709.98;;;19.15;65.51
76337;BME280;65157;50.082;18.178;2023-05-23T11:50:52;98714.29;;;19.30;65.65
76337;BME280;65157;50.082;18.178;2023-05-23T11:53:21;98718.11;;;19.46;65.57
76337;BME280;65157;50.082;18.178;2023-05-23T11:55:54;98722.52;;;19.71;65.79
76337;BME280;65157;50.082;18.178;2023-05-23T11:58:21;98723.67;;;20.02;65.39
76337;BME280;65157;50.082;18.178;2023-05-23T12:00:51;98725.61;;;20.33;65.59
76337;BME280;65157;50.082;18.178;2023-05-23T12:03:18;98719.02;;;20.52;64.52
76337;BME280;65157;50.082;18.178;2023-05-23T12:05:44;98718.77;;;20.60;63.77
76337;BME280;65157;50.082;18.178;2023-05-23T12:08:12;98714.20;;;20.69;63.39
76337;BME280;65157;50.082;18.178;2023-05-23T12:10:49;98713.95;;;20.85;63.69
76337;BME280;65157;50.082;18.178;2023-05-23T12:13:17;98708.66;;;21.09;64.15
76337;BME280;65157;50.082;18.178;2023-05-23T12:15:43;98702.45;;;21.35;63.76
76337;BME280;65157;50.082;18.178;2023-05-23T12:18:10;98698.25;;;21.62;63.00
76337;BME280;65157;50.082;18.178;2023-05-23T12:20:37;98695.27;;;21.89;62.07
76337;BME280;65157;50.082;18.178;2023-05-23T12:23:04;98695.93;;;22.09;61.84
76337;BME280;65157;50.082;18.178;2023-05-23T12:25:39;98692.80;;;22.23;60.45
76337;BME280;65157;50.082;18.178;2023-05-23T12:28:06;98688.02;;;22.33;60.21
76337;BME280;65157;50.082;18.178;2023-05-23T12:30:42;98688.16;;;22.45;60.21
76337;BME280;65157;50.082;18.178;2023-05-23T12:33:09;98688.88;;;22.49;59.30
76337;BME280;65157;50.082;18.178;2023-05-23T12:35:36;98687.69;;;22.56;59.59
76337;BME280;65157;50.082;18.178;2023-05-23T12:38:06;98685.50;;;22.67;59.05
76337;BME280;65157;50.082;18.178;2023-05-23T12:40:34;98685.00;;;22.74;58.88
76337;BME280;65157;50.082;18.178;2023-05-23T12:43:01;98687.55;;;22.82;59.42
76337;BME280;65157;50.082;18.178;2023-05-23T12:45:34;98684.02;;;22.90;59.13
76337;BME280;65157;50.082;18.178;2023-05-23T12:48:02;98677.77;;;23.00;58.54
76337;BME280;65157;50.082;18.178;2023-05-23T12:50:29;98678.13;;;22.98;58.45
76337;BME280;65157;50.082;18.178;2023-05-23T12:52:56;98679.15;;;23.04;58.86
76337;BME280;65157;50.082;18.178;2023-05-23T12:55:23;98681.98;;;23.10;58.03
76337;BME280;65157;50.082;18.178;2023-05-23T12:57:50;98684.71;;;23.11;57.50
76337;BME280;65157;50.082;18.178;2023-05-23T13:00:17;98682.23;;;23.09;56.90
76337;BME280;65157;50.082;18.178;2023-05-23T13:02:44;98683.89;;;23.04;56.41
76337;BME280;65157;50.082;18.178;2023-05-23T13:05:11;98687.04;;;23.02;56.78
76337;BME280;65157;50.082;18.178;2023-05-23T13:07:37;98682.06;;;23.00;56.66
76337;BME280;65157;50.082;18.178;2023-05-23T13:10:05;98687.59;;;22.99;56.46
76337;BME280;65157;50.082;18.178;2023-05-23T13:12:32;98689.67;;;22.98;56.92